SWR2TV LSZH-LIRN
Flight info
| Callsign | SWR2TV |
|---|---|
| Flight time | 1h 24m |
| Altitude | 37000 |
| Route | VEBIT T53 GERSA N850 SOSON DCT ODINA DCT LOMED DCT EVULI DCT ERIKA |
| Aircraft | A320/M-SDE3FGHIRWY/LB1 |
Departure
| Time | 2026-05-04 13:46 |
|---|---|
| Airport | Zürich Airport (LSZH) |
Arrival
| Time | 2026-05-04 15:10 |
|---|---|
| Airport | Naples International Airport (LIRN) |
| Time | Latitude | Longitude | Altitude | Speed | Heading |
|---|---|---|---|---|---|
| 2026-05-04 13:06 | 47.44849 | 8.56148 | 1399 ft | 0 kts | 65° |
| 2026-05-04 13:31 | 47.44842 | 8.56126 | 1399 ft | 4 kts | 67° |
| 2026-05-04 13:31 | 47.44832 | 8.56090 | 1398 ft | 4 kts | 64° |
| 2026-05-04 13:32 | 47.44818 | 8.56059 | 1401 ft | 3 kts | 32° |
| 2026-05-04 13:32 | 47.44797 | 8.56044 | 1398 ft | 4 kts | 4° |
| 2026-05-04 13:32 | 47.44772 | 8.56051 | 1398 ft | 4 kts | 335° |
| 2026-05-04 13:32 | 47.44762 | 8.56058 | 1401 ft | 0 kts | 335° |
| 2026-05-04 13:36 | 47.44767 | 8.56054 | 1398 ft | 3 kts | 335° |
| 2026-05-04 13:36 | 47.44802 | 8.56030 | 1404 ft | 8 kts | 335° |
| 2026-05-04 13:37 | 47.44863 | 8.55988 | 1404 ft | 12 kts | 335° |
| 2026-05-04 13:37 | 47.44936 | 8.55930 | 1403 ft | 10 kts | 313° |
| 2026-05-04 13:37 | 47.44947 | 8.55879 | 1404 ft | 0 kts | 277° |
| 2026-05-04 13:38 | 47.44948 | 8.55870 | 1401 ft | 6 kts | 277° |
| 2026-05-04 13:38 | 47.44957 | 8.55734 | 1405 ft | 12 kts | 275° |
| 2026-05-04 13:38 | 47.44989 | 8.55652 | 1405 ft | 9 kts | 335° |
| 2026-05-04 13:39 | 47.45030 | 8.55623 | 1406 ft | 5 kts | 335° |
| 2026-05-04 13:39 | 47.45052 | 8.55609 | 1400 ft | 2 kts | 335° |
| 2026-05-04 13:39 | 47.45076 | 8.55592 | 1406 ft | 9 kts | 335° |
| 2026-05-04 13:39 | 47.45169 | 8.55529 | 1403 ft | 20 kts | 335° |
| 2026-05-04 13:40 | 47.45314 | 8.55429 | 1409 ft | 24 kts | 334° |
| 2026-05-04 13:40 | 47.45469 | 8.55324 | 1402 ft | 25 kts | 336° |
| 2026-05-04 13:40 | 47.45633 | 8.55210 | 1406 ft | 27 kts | 334° |
| 2026-05-04 13:40 | 47.45809 | 8.55085 | 1402 ft | 28 kts | 335° |
| 2026-05-04 13:41 | 47.45991 | 8.54959 | 1395 ft | 30 kts | 335° |
| 2026-05-04 13:41 | 47.46182 | 8.54828 | 1388 ft | 31 kts | 335° |
| 2026-05-04 13:41 | 47.46379 | 8.54694 | 1384 ft | 31 kts | 334° |
| 2026-05-04 13:42 | 47.46728 | 8.54454 | 1385 ft | 28 kts | 335° |
| 2026-05-04 13:42 | 47.46879 | 8.54359 | 1381 ft | 17 kts | 340° |
| 2026-05-04 13:42 | 47.46971 | 8.54274 | 1379 ft | 10 kts | 320° |
| 2026-05-04 13:42 | 47.46995 | 8.54240 | 1384 ft | 0 kts | 313° |
| 2026-05-04 13:43 | 47.47000 | 8.54231 | 1383 ft | 7 kts | 313° |
| 2026-05-04 13:44 | 47.47017 | 8.54073 | 1384 ft | 17 kts | 248° |
| 2026-05-04 13:44 | 47.46978 | 8.54005 | 1385 ft | 0 kts | 154° |
| 2026-05-04 13:44 | 47.46977 | 8.54005 | 1385 ft | 1 kts | 154° |
| 2026-05-04 13:45 | 47.46841 | 8.54100 | 1381 ft | 56 kts | 155° |
| 2026-05-04 13:45 | 47.46272 | 8.54490 | 1385 ft | 121 kts | 155° |
| 2026-05-04 13:45 | 47.45347 | 8.55131 | 1416 ft | 168 kts | 155° |
| 2026-05-04 13:45 | 47.44308 | 8.55827 | 2008 ft | 166 kts | 155° |
| 2026-05-04 13:46 | 47.43297 | 8.56685 | 2594 ft | 171 kts | 130° |
| 2026-05-04 13:46 | 47.42895 | 8.58365 | 2917 ft | 186 kts | 81° |
| 2026-05-04 13:46 | 47.43527 | 8.60048 | 3271 ft | 201 kts | 37° |
| 2026-05-04 13:46 | 47.44905 | 8.60697 | 3505 ft | 222 kts | 358° |
| 2026-05-04 13:47 | 47.46339 | 8.59911 | 4065 ft | 228 kts | 317° |
| 2026-05-04 13:47 | 47.47086 | 8.57823 | 4557 ft | 238 kts | 277° |
| 2026-05-04 13:47 | 47.47052 | 8.55427 | 5373 ft | 232 kts | 260° |
| 2026-05-04 13:47 | 47.46439 | 8.53219 | 5965 ft | 242 kts | 234° |
| 2026-05-04 13:48 | 47.45389 | 8.51113 | 6291 ft | 266 kts | 235° |
| 2026-05-04 13:48 | 47.44360 | 8.48730 | 6775 ft | 281 kts | 238° |
| 2026-05-04 13:48 | 47.43269 | 8.46292 | 7535 ft | 286 kts | 227° |
| 2026-05-04 13:48 | 47.41668 | 8.44573 | 8360 ft | 288 kts | 202° |
| 2026-05-04 13:49 | 47.39711 | 8.43987 | 9140 ft | 289 kts | 179° |
| 2026-05-04 13:49 | 47.37691 | 8.44128 | 9929 ft | 291 kts | 176° |
| 2026-05-04 13:49 | 47.35642 | 8.44294 | 10499 ft | 304 kts | 176° |
| 2026-05-04 13:49 | 47.33452 | 8.44470 | 10713 ft | 327 kts | 176° |
| 2026-05-04 13:50 | 47.31107 | 8.44650 | 10974 ft | 345 kts | 177° |
| 2026-05-04 13:50 | 47.28681 | 8.44826 | 11612 ft | 351 kts | 177° |
| 2026-05-04 13:50 | 47.26270 | 8.45096 | 12323 ft | 354 kts | 171° |
| 2026-05-04 13:50 | 47.23873 | 8.45989 | 13016 ft | 357 kts | 160° |
| 2026-05-04 13:51 | 47.21611 | 8.47532 | 13674 ft | 361 kts | 154° |
| 2026-05-04 13:51 | 47.19360 | 8.49226 | 14333 ft | 364 kts | 154° |
| 2026-05-04 13:51 | 47.17047 | 8.50776 | 14933 ft | 367 kts | 161° |
| 2026-05-04 13:51 | 47.14561 | 8.51678 | 15517 ft | 370 kts | 173° |
| 2026-05-04 13:52 | 47.09390 | 8.52417 | 16702 ft | 376 kts | 175° |
| 2026-05-04 13:52 | 47.06777 | 8.52786 | 17274 ft | 379 kts | 175° |
| 2026-05-04 13:52 | 47.04142 | 8.53162 | 17822 ft | 383 kts | 175° |
| 2026-05-04 13:53 | 47.01476 | 8.53547 | 18375 ft | 386 kts | 175° |
| 2026-05-04 13:53 | 46.98791 | 8.53935 | 18920 ft | 389 kts | 175° |
| 2026-05-04 13:53 | 46.96077 | 8.54327 | 19448 ft | 392 kts | 175° |
| 2026-05-04 13:54 | 46.90634 | 8.55111 | 20485 ft | 398 kts | 175° |
| 2026-05-04 13:54 | 46.87867 | 8.55515 | 20964 ft | 401 kts | 175° |
| 2026-05-04 13:54 | 46.82268 | 8.56327 | 21851 ft | 407 kts | 175° |
| 2026-05-04 13:55 | 46.79440 | 8.56731 | 22283 ft | 410 kts | 175° |
| 2026-05-04 13:55 | 46.73716 | 8.57553 | 23116 ft | 416 kts | 175° |
| 2026-05-04 13:55 | 46.70822 | 8.57971 | 23531 ft | 419 kts | 175° |
| 2026-05-04 13:56 | 46.67907 | 8.58388 | 23910 ft | 421 kts | 175° |
| 2026-05-04 13:56 | 46.64985 | 8.58806 | 24267 ft | 424 kts | 175° |
| 2026-05-04 13:56 | 46.59088 | 8.59642 | 24988 ft | 427 kts | 175° |
| 2026-05-04 13:57 | 46.56116 | 8.60059 | 25337 ft | 430 kts | 176° |
| 2026-05-04 13:57 | 46.53135 | 8.60481 | 25677 ft | 432 kts | 175° |
| 2026-05-04 13:58 | 46.44119 | 8.61763 | 26636 ft | 437 kts | 176° |
| 2026-05-04 13:58 | 46.38040 | 8.62613 | 27241 ft | 440 kts | 176° |
| 2026-05-04 13:58 | 46.34981 | 8.63041 | 27531 ft | 442 kts | 175° |
| 2026-05-04 13:59 | 46.31954 | 8.63468 | 27803 ft | 443 kts | 175° |
| 2026-05-04 13:59 | 46.28882 | 8.63901 | 28075 ft | 445 kts | 175° |
| 2026-05-04 13:59 | 46.22697 | 8.64775 | 28559 ft | 447 kts | 175° |
| 2026-05-04 14:00 | 46.19597 | 8.65209 | 28784 ft | 449 kts | 175° |
| 2026-05-04 14:00 | 46.13391 | 8.66372 | 29230 ft | 453 kts | 167° |
| 2026-05-04 14:00 | 46.10398 | 8.67840 | 29423 ft | 456 kts | 157° |
| 2026-05-04 14:01 | 46.07614 | 8.70016 | 29686 ft | 457 kts | 148° |
| 2026-05-04 14:01 | 46.05088 | 8.72806 | 29957 ft | 457 kts | 142° |
| 2026-05-04 14:01 | 46.00167 | 8.78614 | 30536 ft | 456 kts | 142° |
| 2026-05-04 14:02 | 45.97713 | 8.81492 | 30797 ft | 456 kts | 142° |
| 2026-05-04 14:02 | 45.95249 | 8.84374 | 31042 ft | 456 kts | 142° |
| 2026-05-04 14:02 | 45.92786 | 8.87251 | 31292 ft | 456 kts | 142° |
| 2026-05-04 14:02 | 45.90331 | 8.90122 | 31551 ft | 455 kts | 142° |
| 2026-05-04 14:03 | 45.87874 | 8.92993 | 31813 ft | 455 kts | 142° |
| 2026-05-04 14:03 | 45.85416 | 8.95863 | 32071 ft | 454 kts | 142° |
| 2026-05-04 14:03 | 45.82967 | 8.98720 | 32321 ft | 454 kts | 142° |
| 2026-05-04 14:03 | 45.80520 | 9.01574 | 32568 ft | 453 kts | 142° |
| 2026-05-04 14:04 | 45.75625 | 9.07273 | 33039 ft | 453 kts | 142° |
| 2026-05-04 14:04 | 45.73181 | 9.10111 | 33287 ft | 452 kts | 142° |
| 2026-05-04 14:04 | 45.70736 | 9.12947 | 33527 ft | 452 kts | 142° |
| 2026-05-04 14:05 | 45.65884 | 9.18558 | 33994 ft | 451 kts | 142° |
| 2026-05-04 14:05 | 45.63446 | 9.21379 | 34234 ft | 450 kts | 142° |
| 2026-05-04 14:05 | 45.61013 | 9.24194 | 34447 ft | 450 kts | 142° |
| 2026-05-04 14:06 | 45.58579 | 9.27005 | 34672 ft | 450 kts | 142° |
| 2026-05-04 14:06 | 45.56140 | 9.29816 | 34891 ft | 450 kts | 142° |
| 2026-05-04 14:06 | 45.53705 | 9.32618 | 35096 ft | 450 kts | 143° |
| 2026-05-04 14:06 | 45.51272 | 9.35415 | 35302 ft | 450 kts | 143° |
| 2026-05-04 14:07 | 45.48829 | 9.38218 | 35504 ft | 449 kts | 143° |
| 2026-05-04 14:07 | 45.46393 | 9.41008 | 35704 ft | 449 kts | 143° |
| 2026-05-04 14:07 | 45.43959 | 9.43792 | 35883 ft | 449 kts | 143° |
| 2026-05-04 14:07 | 45.41527 | 9.46573 | 36062 ft | 449 kts | 143° |
| 2026-05-04 14:08 | 45.39095 | 9.49353 | 36224 ft | 449 kts | 143° |
| 2026-05-04 14:08 | 45.36659 | 9.52136 | 36375 ft | 449 kts | 143° |
| 2026-05-04 14:08 | 45.34221 | 9.54912 | 36523 ft | 449 kts | 143° |
| 2026-05-04 14:08 | 45.31780 | 9.57686 | 36703 ft | 448 kts | 143° |
| 2026-05-04 14:09 | 45.26954 | 9.63170 | 37101 ft | 443 kts | 143° |
| 2026-05-04 14:10 | 45.19761 | 9.71337 | 37113 ft | 443 kts | 143° |
| 2026-05-04 14:10 | 45.14946 | 9.76779 | 37098 ft | 443 kts | 143° |
| 2026-05-04 14:11 | 45.10116 | 9.82221 | 37101 ft | 444 kts | 143° |
| 2026-05-04 14:11 | 45.02859 | 9.90381 | 37102 ft | 444 kts | 143° |
| 2026-05-04 14:12 | 44.98019 | 9.95811 | 37104 ft | 444 kts | 143° |
| 2026-05-04 14:13 | 44.90742 | 10.03956 | 37092 ft | 444 kts | 143° |
| 2026-05-04 14:13 | 44.85899 | 10.09363 | 37084 ft | 444 kts | 143° |
| 2026-05-04 14:14 | 44.81076 | 10.14728 | 37084 ft | 444 kts | 143° |
| 2026-05-04 14:14 | 44.73783 | 10.22820 | 37085 ft | 445 kts | 143° |
| 2026-05-04 14:15 | 44.64039 | 10.33586 | 37093 ft | 446 kts | 143° |
| 2026-05-04 14:16 | 44.56708 | 10.41662 | 37106 ft | 447 kts | 143° |
| 2026-05-04 14:17 | 44.49366 | 10.49722 | 37129 ft | 447 kts | 143° |
| 2026-05-04 14:18 | 44.42006 | 10.57784 | 37154 ft | 447 kts | 143° |
| 2026-05-04 14:19 | 44.33035 | 10.67567 | 37185 ft | 447 kts | 144° |
| 2026-05-04 14:19 | 44.28128 | 10.72895 | 37206 ft | 447 kts | 143° |
| 2026-05-04 14:20 | 44.22419 | 10.79091 | 37222 ft | 446 kts | 144° |
| 2026-05-04 14:20 | 44.18305 | 10.83536 | 37226 ft | 446 kts | 144° |
| 2026-05-04 14:21 | 44.10942 | 10.91486 | 37224 ft | 446 kts | 143° |
| 2026-05-04 14:21 | 44.06054 | 10.96746 | 37214 ft | 447 kts | 144° |
| 2026-05-04 14:22 | 44.01260 | 11.02239 | 37203 ft | 448 kts | 138° |
| 2026-05-04 14:22 | 43.96738 | 11.08188 | 37156 ft | 448 kts | 138° |
| 2026-05-04 14:23 | 43.89926 | 11.17118 | 37137 ft | 450 kts | 138° |
| 2026-05-04 14:24 | 43.85375 | 11.23066 | 37131 ft | 450 kts | 138° |
| 2026-05-04 14:24 | 43.80824 | 11.29016 | 37126 ft | 450 kts | 138° |
| 2026-05-04 14:25 | 43.76289 | 11.34915 | 37124 ft | 450 kts | 138° |
| 2026-05-04 14:25 | 43.69440 | 11.43797 | 37122 ft | 450 kts | 138° |
| 2026-05-04 14:26 | 43.64879 | 11.49696 | 37120 ft | 449 kts | 138° |
| 2026-05-04 14:26 | 43.60308 | 11.55601 | 37118 ft | 450 kts | 138° |
| 2026-05-04 14:27 | 43.55739 | 11.61496 | 37116 ft | 449 kts | 138° |
| 2026-05-04 14:27 | 43.51197 | 11.67332 | 37120 ft | 449 kts | 138° |
| 2026-05-04 14:28 | 43.46620 | 11.73208 | 37118 ft | 449 kts | 138° |
| 2026-05-04 14:28 | 43.42048 | 11.79066 | 37116 ft | 449 kts | 138° |
| 2026-05-04 14:29 | 43.32874 | 11.90758 | 37119 ft | 450 kts | 139° |
| 2026-05-04 14:30 | 43.28283 | 11.96589 | 37118 ft | 450 kts | 139° |
| 2026-05-04 14:31 | 43.21391 | 12.05332 | 37114 ft | 450 kts | 138° |
| 2026-05-04 14:32 | 43.12219 | 12.16918 | 37106 ft | 450 kts | 139° |
| 2026-05-04 14:32 | 43.07608 | 12.22728 | 37104 ft | 450 kts | 139° |
| 2026-05-04 14:33 | 43.02991 | 12.28537 | 37102 ft | 451 kts | 139° |
| 2026-05-04 14:33 | 42.98368 | 12.34341 | 37101 ft | 451 kts | 139° |
| 2026-05-04 14:34 | 42.93740 | 12.40136 | 37105 ft | 452 kts | 139° |
| 2026-05-04 14:34 | 42.89091 | 12.45931 | 37106 ft | 452 kts | 139° |
| 2026-05-04 14:35 | 42.84445 | 12.51719 | 37108 ft | 452 kts | 139° |
| 2026-05-04 14:35 | 42.79800 | 12.57509 | 37107 ft | 453 kts | 139° |
| 2026-05-04 14:36 | 42.75139 | 12.63290 | 37113 ft | 453 kts | 139° |
| 2026-05-04 14:36 | 42.70503 | 12.69028 | 37119 ft | 453 kts | 139° |
| 2026-05-04 14:37 | 42.65837 | 12.74794 | 37128 ft | 454 kts | 139° |
| 2026-05-04 14:37 | 42.61161 | 12.80563 | 37138 ft | 454 kts | 139° |
| 2026-05-04 14:38 | 42.56475 | 12.86318 | 37146 ft | 454 kts | 139° |
| 2026-05-04 14:38 | 42.51792 | 12.92067 | 37154 ft | 455 kts | 139° |
| 2026-05-04 14:39 | 42.47096 | 12.97827 | 37158 ft | 454 kts | 139° |
| 2026-05-04 14:39 | 42.42439 | 13.03522 | 37159 ft | 454 kts | 139° |
| 2026-05-04 14:40 | 42.35405 | 13.12101 | 37055 ft | 454 kts | 139° |
| 2026-05-04 14:40 | 42.33058 | 13.14959 | 36801 ft | 453 kts | 139° |
| 2026-05-04 14:40 | 42.30710 | 13.17815 | 36547 ft | 453 kts | 139° |
| 2026-05-04 14:41 | 42.28370 | 13.20653 | 36307 ft | 452 kts | 139° |
| 2026-05-04 14:41 | 42.26019 | 13.23497 | 36056 ft | 455 kts | 139° |
| 2026-05-04 14:41 | 42.21273 | 13.29242 | 35553 ft | 460 kts | 139° |
| 2026-05-04 14:42 | 42.16502 | 13.35011 | 34899 ft | 462 kts | 139° |
| 2026-05-04 14:42 | 42.14121 | 13.37945 | 34067 ft | 463 kts | 137° |
| 2026-05-04 14:42 | 42.11768 | 13.40915 | 33199 ft | 465 kts | 137° |
| 2026-05-04 14:43 | 42.09416 | 13.43928 | 32317 ft | 466 kts | 137° |
| 2026-05-04 14:43 | 42.07097 | 13.46912 | 31407 ft | 468 kts | 137° |
| 2026-05-04 14:43 | 42.04736 | 13.49940 | 30446 ft | 470 kts | 137° |
| 2026-05-04 14:43 | 42.02363 | 13.52965 | 29430 ft | 473 kts | 137° |
| 2026-05-04 14:44 | 41.99963 | 13.56004 | 28671 ft | 470 kts | 137° |
| 2026-05-04 14:44 | 41.97603 | 13.58981 | 28074 ft | 463 kts | 137° |
| 2026-05-04 14:44 | 41.95262 | 13.61923 | 27421 ft | 458 kts | 137° |
| 2026-05-04 14:44 | 41.92944 | 13.64827 | 26790 ft | 453 kts | 137° |
| 2026-05-04 14:45 | 41.90645 | 13.67705 | 26158 ft | 449 kts | 137° |
| 2026-05-04 14:45 | 41.88375 | 13.70543 | 25549 ft | 444 kts | 137° |
| 2026-05-04 14:45 | 41.86122 | 13.73362 | 24928 ft | 440 kts | 137° |
| 2026-05-04 14:45 | 41.83895 | 13.76150 | 24232 ft | 437 kts | 137° |
| 2026-05-04 14:46 | 41.81642 | 13.78934 | 23056 ft | 445 kts | 138° |
| 2026-05-04 14:46 | 41.79330 | 13.81753 | 22097 ft | 449 kts | 138° |
| 2026-05-04 14:46 | 41.77037 | 13.84524 | 21637 ft | 439 kts | 139° |
| 2026-05-04 14:46 | 41.74773 | 13.87255 | 21007 ft | 435 kts | 139° |
| 2026-05-04 14:47 | 41.72540 | 13.89943 | 20437 ft | 429 kts | 139° |
| 2026-05-04 14:47 | 41.70320 | 13.92618 | 19809 ft | 426 kts | 138° |
| 2026-05-04 14:47 | 41.68140 | 13.95248 | 19268 ft | 420 kts | 138° |
| 2026-05-04 14:47 | 41.65988 | 13.97848 | 18762 ft | 414 kts | 138° |
| 2026-05-04 14:48 | 41.63866 | 14.00419 | 18240 ft | 409 kts | 138° |
| 2026-05-04 14:48 | 41.61774 | 14.02955 | 17733 ft | 405 kts | 138° |
| 2026-05-04 14:48 | 41.59697 | 14.05469 | 17195 ft | 401 kts | 138° |
| 2026-05-04 14:48 | 41.57636 | 14.07954 | 16674 ft | 397 kts | 138° |
| 2026-05-04 14:49 | 41.55589 | 14.10412 | 16132 ft | 394 kts | 138° |
| 2026-05-04 14:49 | 41.53556 | 14.12849 | 15592 ft | 391 kts | 138° |
| 2026-05-04 14:49 | 41.51565 | 14.15235 | 15064 ft | 389 kts | 138° |
| 2026-05-04 14:49 | 41.49556 | 14.17644 | 14508 ft | 386 kts | 138° |
| 2026-05-04 14:50 | 41.47575 | 14.20028 | 13962 ft | 382 kts | 138° |
| 2026-05-04 14:50 | 41.45600 | 14.22394 | 13422 ft | 380 kts | 138° |
| 2026-05-04 14:50 | 41.43657 | 14.24721 | 13172 ft | 369 kts | 138° |
| 2026-05-04 14:50 | 41.41765 | 14.26991 | 13159 ft | 364 kts | 138° |
| 2026-05-04 14:51 | 41.39882 | 14.29248 | 13167 ft | 364 kts | 138° |
| 2026-05-04 14:51 | 41.37992 | 14.31502 | 13158 ft | 364 kts | 138° |
| 2026-05-04 14:51 | 41.36125 | 14.33723 | 13157 ft | 355 kts | 138° |
| 2026-05-04 14:51 | 41.34322 | 14.35869 | 13149 ft | 337 kts | 138° |
| 2026-05-04 14:52 | 41.32606 | 14.37911 | 13011 ft | 326 kts | 138° |
| 2026-05-04 14:52 | 41.30953 | 14.39875 | 12860 ft | 313 kts | 138° |
| 2026-05-04 14:52 | 41.29348 | 14.41914 | 12063 ft | 325 kts | 133° |
| 2026-05-04 14:52 | 41.27716 | 14.43992 | 11464 ft | 333 kts | 138° |
| 2026-05-04 14:53 | 41.25959 | 14.46071 | 11198 ft | 349 kts | 139° |
| 2026-05-04 14:53 | 41.24118 | 14.48220 | 11143 ft | 353 kts | 139° |
| 2026-05-04 14:53 | 41.22262 | 14.50378 | 11152 ft | 354 kts | 139° |
| 2026-05-04 14:53 | 41.20410 | 14.52532 | 10914 ft | 353 kts | 139° |
| 2026-05-04 14:54 | 41.18575 | 14.54702 | 10663 ft | 352 kts | 135° |
| 2026-05-04 14:54 | 41.17128 | 14.57277 | 10385 ft | 344 kts | 122° |
| 2026-05-04 14:54 | 41.15616 | 14.59730 | 9726 ft | 345 kts | 140° |
| 2026-05-04 14:54 | 41.13633 | 14.61467 | 9227 ft | 341 kts | 154° |
| 2026-05-04 14:55 | 41.11399 | 14.62480 | 8717 ft | 338 kts | 169° |
| 2026-05-04 14:55 | 41.09058 | 14.62724 | 8091 ft | 339 kts | 184° |
| 2026-05-04 14:55 | 41.06774 | 14.62173 | 7635 ft | 327 kts | 198° |
| 2026-05-04 14:55 | 41.04783 | 14.60966 | 7360 ft | 303 kts | 212° |
| 2026-05-04 14:56 | 41.03159 | 14.59326 | 7062 ft | 286 kts | 224° |
| 2026-05-04 14:56 | 41.01893 | 14.57379 | 6658 ft | 273 kts | 236° |
| 2026-05-04 14:56 | 41.00907 | 14.55320 | 6186 ft | 264 kts | 238° |
| 2026-05-04 14:56 | 40.99956 | 14.53274 | 5712 ft | 261 kts | 238° |
| 2026-05-04 14:57 | 40.98986 | 14.51190 | 5230 ft | 264 kts | 238° |
| 2026-05-04 14:57 | 40.98149 | 14.49054 | 5023 ft | 254 kts | 257° |
| 2026-05-04 14:57 | 40.98177 | 14.46853 | 5763 ft | 240 kts | 289° |
| 2026-05-04 14:57 | 40.99053 | 14.44997 | 6602 ft | 243 kts | 317° |
| 2026-05-04 14:58 | 41.00452 | 14.43764 | 6904 ft | 241 kts | 332° |
| 2026-05-04 14:58 | 41.01952 | 14.42770 | 6993 ft | 241 kts | 334° |
| 2026-05-04 14:58 | 41.03546 | 14.42141 | 7014 ft | 240 kts | 359° |
| 2026-05-04 14:58 | 41.04635 | 14.42351 | 7013 ft | 241 kts | 21° |
| 2026-05-04 14:59 | 41.06369 | 14.44152 | 7015 ft | 240 kts | 51° |
| 2026-05-04 14:59 | 41.07382 | 14.45929 | 7020 ft | 242 kts | 54° |
| 2026-05-04 14:59 | 41.09343 | 14.49558 | 7008 ft | 242 kts | 54° |
| 2026-05-04 15:00 | 41.10319 | 14.51376 | 7015 ft | 242 kts | 54° |
| 2026-05-04 15:00 | 41.11292 | 14.53195 | 7021 ft | 242 kts | 54° |
| 2026-05-04 15:00 | 41.12261 | 14.55007 | 7018 ft | 242 kts | 54° |
| 2026-05-04 15:01 | 41.14209 | 14.58651 | 7001 ft | 242 kts | 54° |
| 2026-05-04 15:01 | 41.15184 | 14.60476 | 7013 ft | 242 kts | 54° |
| 2026-05-04 15:01 | 41.15949 | 14.62445 | 7001 ft | 242 kts | 78° |
| 2026-05-04 15:01 | 41.15882 | 14.64641 | 7013 ft | 241 kts | 110° |
| 2026-05-04 15:02 | 41.14968 | 14.66466 | 7019 ft | 240 kts | 139° |
| 2026-05-04 15:02 | 41.13544 | 14.67586 | 7019 ft | 240 kts | 164° |
| 2026-05-04 15:02 | 41.11898 | 14.67746 | 7020 ft | 240 kts | 189° |
| 2026-05-04 15:02 | 41.10250 | 14.67360 | 6958 ft | 242 kts | 191° |
| 2026-05-04 15:03 | 41.08605 | 14.66963 | 6796 ft | 240 kts | 191° |
| 2026-05-04 15:03 | 41.06996 | 14.66424 | 6654 ft | 238 kts | 205° |
| 2026-05-04 15:03 | 41.05646 | 14.65195 | 6643 ft | 237 kts | 227° |
| 2026-05-04 15:03 | 41.04676 | 14.63423 | 6488 ft | 238 kts | 239° |
| 2026-05-04 15:04 | 41.03818 | 14.61557 | 6184 ft | 236 kts | 239° |
| 2026-05-04 15:04 | 41.02973 | 14.59728 | 5868 ft | 235 kts | 238° |
| 2026-05-04 15:04 | 41.02115 | 14.57887 | 5518 ft | 235 kts | 238° |
| 2026-05-04 15:04 | 41.01253 | 14.56040 | 5157 ft | 236 kts | 238° |
| 2026-05-04 15:05 | 41.00386 | 14.54187 | 4812 ft | 236 kts | 238° |
| 2026-05-04 15:05 | 40.99534 | 14.52365 | 4472 ft | 228 kts | 238° |
| 2026-05-04 15:05 | 40.98714 | 14.50611 | 4139 ft | 220 kts | 238° |
| 2026-05-04 15:05 | 40.97922 | 14.48918 | 3813 ft | 214 kts | 238° |
| 2026-05-04 15:06 | 40.97151 | 14.47271 | 3510 ft | 208 kts | 238° |
| 2026-05-04 15:06 | 40.96398 | 14.45666 | 3247 ft | 203 kts | 238° |
| 2026-05-04 15:06 | 40.95662 | 14.44098 | 2917 ft | 196 kts | 238° |
| 2026-05-04 15:07 | 40.94287 | 14.41166 | 2348 ft | 178 kts | 238° |
| 2026-05-04 15:07 | 40.93866 | 14.40267 | 2167 ft | 170 kts | 238° |
| 2026-05-04 15:07 | 40.93087 | 14.38608 | 1870 ft | 152 kts | 237° |
| 2026-05-04 15:07 | 40.92545 | 14.37452 | 1646 ft | 146 kts | 238° |
| 2026-05-04 15:08 | 40.92190 | 14.36685 | 1485 ft | 144 kts | 238° |
| 2026-05-04 15:08 | 40.91670 | 14.35561 | 1246 ft | 142 kts | 237° |
| 2026-05-04 15:08 | 40.91142 | 14.34453 | 1028 ft | 142 kts | 235° |
| 2026-05-04 15:08 | 40.90603 | 14.33365 | 810 ft | 141 kts | 236° |
| 2026-05-04 15:09 | 40.90093 | 14.32270 | 616 ft | 141 kts | 238° |
| 2026-05-04 15:09 | 40.89591 | 14.31152 | 409 ft | 140 kts | 237° |
| 2026-05-04 15:09 | 40.89068 | 14.30059 | 267 ft | 140 kts | 237° |
| 2026-05-04 15:10 | 40.88407 | 14.28664 | 279 ft | 43 kts | 237° |
| 2026-05-04 15:10 | 40.88241 | 14.28429 | 285 ft | 27 kts | 217° |
| 2026-05-04 15:10 | 40.88104 | 14.28333 | 287 ft | 0 kts | 207° |
| 2026-05-04 15:11 | 40.88100 | 14.28330 | 287 ft | 0 kts | 207° |
| 2026-05-04 15:11 | 40.88088 | 14.28323 | 287 ft | 6 kts | 202° |
| 2026-05-04 15:11 | 40.88061 | 14.28347 | 287 ft | 4 kts | 112° |
| 2026-05-04 15:12 | 40.88055 | 14.28389 | 287 ft | 5 kts | 96° |
| 2026-05-04 15:12 | 40.88047 | 14.28491 | 285 ft | 13 kts | 96° |
| 2026-05-04 15:12 | 40.88008 | 14.28527 | 285 ft | 7 kts | 194° |
| 2026-05-04 15:12 | 40.87962 | 14.28486 | 287 ft | 9 kts | 220° |
| 2026-05-04 15:13 | 40.87918 | 14.28419 | 288 ft | 10 kts | 218° |
| 2026-05-04 15:13 | 40.87876 | 14.28407 | 291 ft | 2 kts | 187° |
| 2026-05-04 15:13 | 40.87871 | 14.28406 | 292 ft | 1 kts | 187° |
| 2026-05-04 15:13 | 40.87865 | 14.28405 | 290 ft | 0 kts | 187° |